sensor_id;sensor_type;location;lat;lon;timestamp;P1;durP1;ratioP1;P2;durP2;ratioP2
43664;SDS011;29263;48.172;11.484;2024-03-22T00:00:38;13.90;;;9.43;;
43664;SDS011;29263;48.172;11.484;2024-03-22T00:03:04;16.50;;;9.30;;
43664;SDS011;29263;48.172;11.484;2024-03-22T00:05:30;14.00;;;9.27;;
43664;SDS011;29263;48.172;11.484;2024-03-22T00:07:55;16.37;;;9.10;;
43664;SDS011;29263;48.172;11.484;2024-03-22T00:10:21;14.73;;;8.67;;
43664;SDS011;29263;48.172;11.484;2024-03-22T00:12:48;13.37;;;8.93;;
43664;SDS011;29263;48.172;11.484;2024-03-22T00:15:14;15.13;;;9.40;;
43664;SDS011;29263;48.172;11.484;2024-03-22T00:17:40;14.70;;;9.10;;
43664;SDS011;29263;48.172;11.484;2024-03-22T00:20:07;15.47;;;8.43;;
43664;SDS011;29263;48.172;11.484;2024-03-22T00:22:33;14.70;;;8.53;;
43664;SDS011;29263;48.172;11.484;2024-03-22T00:24:58;13.63;;;8.60;;
43664;SDS011;29263;48.172;11.484;2024-03-22T00:27:24;12.93;;;8.43;;
43664;SDS011;29263;48.172;11.484;2024-03-22T00:29:49;20.50;;;10.63;;
43664;SDS011;29263;48.172;11.484;2024-03-22T00:32:15;14.63;;;8.63;;
43664;SDS011;29263;48.172;11.484;2024-03-22T00:34:41;15.37;;;8.97;;
43664;SDS011;29263;48.172;11.484;2024-03-22T00:37:06;13.50;;;8.37;;
43664;SDS011;29263;48.172;11.484;2024-03-22T00:39:32;14.70;;;9.20;;
43664;SDS011;29263;48.172;11.484;2024-03-22T00:41:57;14.13;;;8.33;;
43664;SDS011;29263;48.172;11.484;2024-03-22T00:44:23;14.50;;;8.20;;
43664;SDS011;29263;48.172;11.484;2024-03-22T00:46:49;12.13;;;8.10;;
43664;SDS011;29263;48.172;11.484;2024-03-22T00:49:14;13.23;;;8.57;;
43664;SDS011;29263;48.172;11.484;2024-03-22T00:51:40;11.90;;;7.87;;
43664;SDS011;29263;48.172;11.484;2024-03-22T00:54:08;13.70;;;8.70;;
43664;SDS011;29263;48.172;11.484;2024-03-22T00:56:34;13.57;;;8.50;;
43664;SDS011;29263;48.172;11.484;2024-03-22T00:58:59;13.20;;;8.67;;
43664;SDS011;29263;48.172;11.484;2024-03-22T01:01:25;14.43;;;9.13;;
43664;SDS011;29263;48.172;11.484;2024-03-22T01:03:50;14.10;;;8.67;;
43664;SDS011;29263;48.172;11.484;2024-03-22T01:06:16;14.17;;;8.67;;
43664;SDS011;29263;48.172;11.484;2024-03-22T01:08:47;19.27;;;8.80;;
43664;SDS011;29263;48.172;11.484;2024-03-22T01:11:13;12.27;;;7.73;;
43664;SDS011;29263;48.172;11.484;2024-03-22T01:13:38;14.10;;;9.17;;
43664;SDS011;29263;48.172;11.484;2024-03-22T01:16:04;12.60;;;8.50;;
43664;SDS011;29263;48.172;11.484;2024-03-22T01:18:30;14.97;;;9.03;;
43664;SDS011;29263;48.172;11.484;2024-03-22T01:20:56;14.97;;;9.03;;
43664;SDS011;29263;48.172;11.484;2024-03-22T01:23:21;13.27;;;8.80;;
43664;SDS011;29263;48.172;11.484;2024-03-22T01:25:47;13.87;;;9.03;;
43664;SDS011;29263;48.172;11.484;2024-03-22T01:28:12;13.10;;;8.63;;
43664;SDS011;29263;48.172;11.484;2024-03-22T01:30:38;13.23;;;8.37;;
43664;SDS011;29263;48.172;11.484;2024-03-22T01:33:04;16.47;;;9.60;;
43664;SDS011;29263;48.172;11.484;2024-03-22T01:35:29;13.37;;;8.97;;
43664;SDS011;29263;48.172;11.484;2024-03-22T01:37:55;17.33;;;9.53;;
43664;SDS011;29263;48.172;11.484;2024-03-22T01:40:20;12.63;;;8.47;;
43664;SDS011;29263;48.172;11.484;2024-03-22T01:42:46;17.13;;;9.07;;
43664;SDS011;29263;48.172;11.484;2024-03-22T01:45:12;14.90;;;8.47;;
43664;SDS011;29263;48.172;11.484;2024-03-22T01:47:39;12.57;;;8.33;;
43664;SDS011;29263;48.172;11.484;2024-03-22T01:50:05;15.00;;;8.80;;
43664;SDS011;29263;48.172;11.484;2024-03-22T01:52:32;14.57;;;9.17;;
43664;SDS011;29263;48.172;11.484;2024-03-22T01:54:58;14.60;;;9.00;;
43664;SDS011;29263;48.172;11.484;2024-03-22T01:57:24;14.10;;;9.10;;
43664;SDS011;29263;48.172;11.484;2024-03-22T01:59:51;14.13;;;8.57;;
43664;SDS011;29263;48.172;11.484;2024-03-22T02:02:20;13.90;;;8.63;;
43664;SDS011;29263;48.172;11.484;2024-03-22T02:04:46;12.07;;;7.50;;
43664;SDS011;29263;48.172;11.484;2024-03-22T02:07:15;15.48;;;8.25;;
43664;SDS011;29263;48.172;11.484;2024-03-22T02:09:41;12.03;;;7.70;;
43664;SDS011;29263;48.172;11.484;2024-03-22T02:12:07;13.17;;;8.53;;
43664;SDS011;29263;48.172;11.484;2024-03-22T02:14:33;12.10;;;8.33;;
43664;SDS011;29263;48.172;11.484;2024-03-22T02:16:59;15.53;;;8.57;;
43664;SDS011;29263;48.172;11.484;2024-03-22T02:19:24;14.03;;;8.67;;
43664;SDS011;29263;48.172;11.484;2024-03-22T02:21:50;13.23;;;8.73;;
43664;SDS011;29263;48.172;11.484;2024-03-22T02:24:15;13.47;;;8.40;;
43664;SDS011;29263;48.172;11.484;2024-03-22T02:26:41;15.27;;;9.70;;
43664;SDS011;29263;48.172;11.484;2024-03-22T02:29:07;13.00;;;8.40;;
43664;SDS011;29263;48.172;11.484;2024-03-22T02:31:32;15.37;;;9.47;;
43664;SDS011;29263;48.172;11.484;2024-03-22T02:33:58;11.23;;;8.10;;
43664;SDS011;29263;48.172;11.484;2024-03-22T02:36:24;13.90;;;8.93;;
43664;SDS011;29263;48.172;11.484;2024-03-22T02:38:49;19.80;;;8.83;;
43664;SDS011;29263;48.172;11.484;2024-03-22T02:41:15;13.93;;;8.70;;
43664;SDS011;29263;48.172;11.484;2024-03-22T02:43:40;13.93;;;9.40;;
43664;SDS011;29263;48.172;11.484;2024-03-22T02:46:06;14.80;;;8.77;;
43664;SDS011;29263;48.172;11.484;2024-03-22T02:48:31;14.57;;;8.23;;
43664;SDS011;29263;48.172;11.484;2024-03-22T02:50:57;16.03;;;8.70;;
43664;SDS011;29263;48.172;11.484;2024-03-22T02:53:23;15.57;;;10.07;;
43664;SDS011;29263;48.172;11.484;2024-03-22T02:55:48;11.67;;;7.33;;
43664;SDS011;29263;48.172;11.484;2024-03-22T02:58:14;14.83;;;8.50;;
43664;SDS011;29263;48.172;11.484;2024-03-22T03:00:40;15.10;;;9.23;;
43664;SDS011;29263;48.172;11.484;2024-03-22T03:03:05;14.80;;;8.53;;
43664;SDS011;29263;48.172;11.484;2024-03-22T03:05:31;14.53;;;9.17;;
43664;SDS011;29263;48.172;11.484;2024-03-22T03:07:57;13.83;;;8.97;;
43664;SDS011;29263;48.172;11.484;2024-03-22T03:10:22;15.93;;;9.20;;
43664;SDS011;29263;48.172;11.484;2024-03-22T03:12:48;14.13;;;8.63;;
43664;SDS011;29263;48.172;11.484;2024-03-22T03:15:13;15.37;;;8.53;;
43664;SDS011;29263;48.172;11.484;2024-03-22T03:17:41;13.27;;;8.63;;
43664;SDS011;29263;48.172;11.484;2024-03-22T03:20:06;14.90;;;8.97;;
43664;SDS011;29263;48.172;11.484;2024-03-22T03:22:33;19.53;;;9.20;;
43664;SDS011;29263;48.172;11.484;2024-03-22T03:24:59;15.43;;;8.10;;
43664;SDS011;29263;48.172;11.484;2024-03-22T03:27:25;18.30;;;9.50;;
43664;SDS011;29263;48.172;11.484;2024-03-22T03:29:50;13.40;;;8.30;;
43664;SDS011;29263;48.172;11.484;2024-03-22T03:32:16;14.00;;;9.43;;
43664;SDS011;29263;48.172;11.484;2024-03-22T03:34:42;15.67;;;8.97;;
43664;SDS011;29263;48.172;11.484;2024-03-22T03:37:07;15.93;;;8.93;;
43664;SDS011;29263;48.172;11.484;2024-03-22T03:39:33;15.37;;;9.23;;
43664;SDS011;29263;48.172;11.484;2024-03-22T03:41:59;14.63;;;9.00;;
43664;SDS011;29263;48.172;11.484;2024-03-22T03:44:24;14.10;;;9.33;;
43664;SDS011;29263;48.172;11.484;2024-03-22T03:46:50;15.03;;;9.23;;
43664;SDS011;29263;48.172;11.484;2024-03-22T03:49:15;15.17;;;9.20;;
43664;SDS011;29263;48.172;11.484;2024-03-22T03:51:41;17.80;;;9.33;;
43664;SDS011;29263;48.172;11.484;2024-03-22T03:54:06;13.37;;;8.70;;
43664;SDS011;29263;48.172;11.484;2024-03-22T03:56:32;14.50;;;8.73;;
43664;SDS011;29263;48.172;11.484;2024-03-22T03:58:58;15.10;;;9.50;;
43664;SDS011;29263;48.172;11.484;2024-03-22T04:01:23;15.07;;;9.57;;
43664;SDS011;29263;48.172;11.484;2024-03-22T04:03:49;18.70;;;10.57;;
43664;SDS011;29263;48.172;11.484;2024-03-22T04:06:14;16.37;;;9.47;;
43664;SDS011;29263;48.172;11.484;2024-03-22T04:08:40;17.33;;;9.37;;
43664;SDS011;29263;48.172;11.484;2024-03-22T04:11:06;19.87;;;9.73;;
43664;SDS011;29263;48.172;11.484;2024-03-22T04:13:31;16.07;;;9.97;;
43664;SDS011;29263;48.172;11.484;2024-03-22T04:15:58;14.77;;;8.73;;
43664;SDS011;29263;48.172;11.484;2024-03-22T04:18:24;14.83;;;8.97;;
43664;SDS011;29263;48.172;11.484;2024-03-22T04:20:56;16.90;;;9.17;;
43664;SDS011;29263;48.172;11.484;2024-03-22T04:23:23;16.73;;;9.20;;
43664;SDS011;29263;48.172;11.484;2024-03-22T04:25:55;15.43;;;8.53;;
43664;SDS011;29263;48.172;11.484;2024-03-22T04:28:22;14.37;;;8.77;;
43664;SDS011;29263;48.172;11.484;2024-03-22T04:30:56;16.40;;;9.50;;
43664;SDS011;29263;48.172;11.484;2024-03-22T04:33:24;14.83;;;8.50;;
43664;SDS011;29263;48.172;11.484;2024-03-22T04:35:49;19.57;;;10.27;;
43664;SDS011;29263;48.172;11.484;2024-03-22T04:38:15;15.63;;;8.90;;
43664;SDS011;29263;48.172;11.484;2024-03-22T04:40:41;15.30;;;9.20;;
43664;SDS011;29263;48.172;11.484;2024-03-22T04:43:07;15.27;;;9.23;;
43664;SDS011;29263;48.172;11.484;2024-03-22T04:45:33;16.83;;;10.37;;
43664;SDS011;29263;48.172;11.484;2024-03-22T04:48:00;14.17;;;9.00;;
43664;SDS011;29263;48.172;11.484;2024-03-22T04:50:27;16.73;;;9.70;;
43664;SDS011;29263;48.172;11.484;2024-03-22T04:52:53;16.17;;;9.67;;
43664;SDS011;29263;48.172;11.484;2024-03-22T04:55:18;16.70;;;9.77;;
43664;SDS011;29263;48.172;11.484;2024-03-22T04:57:44;16.47;;;9.73;;
43664;SDS011;29263;48.172;11.484;2024-03-22T05:00:10;18.10;;;10.53;;
43664;SDS011;29263;48.172;11.484;2024-03-22T05:02:36;14.93;;;9.70;;
43664;SDS011;29263;48.172;11.484;2024-03-22T05:05:01;19.80;;;11.00;;
43664;SDS011;29263;48.172;11.484;2024-03-22T05:07:27;17.90;;;10.40;;
43664;SDS011;29263;48.172;11.484;2024-03-22T05:09:53;17.23;;;10.60;;
43664;SDS011;29263;48.172;11.484;2024-03-22T05:12:18;18.30;;;10.57;;
43664;SDS011;29263;48.172;11.484;2024-03-22T05:14:44;18.83;;;10.83;;
43664;SDS011;29263;48.172;11.484;2024-03-22T05:17:09;19.80;;;11.60;;
43664;SDS011;29263;48.172;11.484;2024-03-22T05:19:35;18.13;;;10.93;;
43664;SDS011;29263;48.172;11.484;2024-03-22T05:22:01;16.67;;;10.43;;
43664;SDS011;29263;48.172;11.484;2024-03-22T05:24:27;19.20;;;11.07;;
43664;SDS011;29263;48.172;11.484;2024-03-22T05:26:53;20.20;;;11.30;;
43664;SDS011;29263;48.172;11.484;2024-03-22T05:29:18;18.77;;;10.40;;
43664;SDS011;29263;48.172;11.484;2024-03-22T05:31:48;18.43;;;10.43;;
43664;SDS011;29263;48.172;11.484;2024-03-22T05:34:16;18.03;;;10.23;;
43664;SDS011;29263;48.172;11.484;2024-03-22T05:36:42;17.13;;;10.47;;
43664;SDS011;29263;48.172;11.484;2024-03-22T05:39:08;16.87;;;10.07;;
43664;SDS011;29263;48.172;11.484;2024-03-22T05:41:35;18.77;;;10.27;;
43664;SDS011;29263;48.172;11.484;2024-03-22T05:44:01;16.23;;;9.97;;
43664;SDS011;29263;48.172;11.484;2024-03-22T05:46:28;14.90;;;10.30;;
43664;SDS011;29263;48.172;11.484;2024-03-22T05:48:54;18.20;;;9.90;;
43664;SDS011;29263;48.172;11.484;2024-03-22T05:51:19;16.97;;;9.23;;
43664;SDS011;29263;48.172;11.484;2024-03-22T05:53:45;16.93;;;10.33;;
43664;SDS011;29263;48.172;11.484;2024-03-22T05:56:10;16.33;;;9.93;;
43664;SDS011;29263;48.172;11.484;2024-03-22T05:58:36;15.20;;;9.50;;
43664;SDS011;29263;48.172;11.484;2024-03-22T06:01:02;20.03;;;10.60;;
43664;SDS011;29263;48.172;11.484;2024-03-22T06:03:28;15.33;;;9.63;;
43664;SDS011;29263;48.172;11.484;2024-03-22T06:05:54;14.87;;;9.33;;
43664;SDS011;29263;48.172;11.484;2024-03-22T06:08:21;14.30;;;9.17;;
43664;SDS011;29263;48.172;11.484;2024-03-22T06:10:47;15.47;;;9.63;;
43664;SDS011;29263;48.172;11.484;2024-03-22T06:13:13;14.93;;;9.30;;
43664;SDS011;29263;48.172;11.484;2024-03-22T06:15:40;13.90;;;8.20;;
43664;SDS011;29263;48.172;11.484;2024-03-22T06:18:10;15.57;;;9.03;;
43664;SDS011;29263;48.172;11.484;2024-03-22T06:20:36;14.50;;;8.93;;
43664;SDS011;29263;48.172;11.484;2024-03-22T06:23:02;15.87;;;9.30;;
43664;SDS011;29263;48.172;11.484;2024-03-22T06:25:27;15.93;;;9.30;;
43664;SDS011;29263;48.172;11.484;2024-03-22T06:27:53;14.33;;;8.23;;
43664;SDS011;29263;48.172;11.484;2024-03-22T06:30:18;12.83;;;8.17;;
43664;SDS011;29263;48.172;11.484;2024-03-22T06:32:44;14.77;;;10.23;;
43664;SDS011;29263;48.172;11.484;2024-03-22T06:35:10;15.73;;;8.40;;
43664;SDS011;29263;48.172;11.484;2024-03-22T06:37:36;17.00;;;10.50;;
43664;SDS011;29263;48.172;11.484;2024-03-22T06:40:02;15.13;;;10.07;;
43664;SDS011;29263;48.172;11.484;2024-03-22T06:42:30;17.97;;;10.10;;
43664;SDS011;29263;48.172;11.484;2024-03-22T06:44:55;18.00;;;9.97;;
43664;SDS011;29263;48.172;11.484;2024-03-22T06:47:21;15.63;;;10.00;;
43664;SDS011;29263;48.172;11.484;2024-03-22T06:49:48;17.13;;;9.87;;
43664;SDS011;29263;48.172;11.484;2024-03-22T06:52:14;16.70;;;10.23;;
43664;SDS011;29263;48.172;11.484;2024-03-22T06:54:40;16.23;;;9.10;;
43664;SDS011;29263;48.172;11.484;2024-03-22T06:57:06;18.30;;;9.87;;
43664;SDS011;29263;48.172;11.484;2024-03-22T06:59:32;13.13;;;9.37;;
43664;SDS011;29263;48.172;11.484;2024-03-22T07:01:57;14.87;;;9.07;;
43664;SDS011;29263;48.172;11.484;2024-03-22T07:04:23;15.83;;;8.00;;
43664;SDS011;29263;48.172;11.484;2024-03-22T07:06:49;13.80;;;9.03;;
43664;SDS011;29263;48.172;11.484;2024-03-22T07:09:15;12.17;;;8.50;;
43664;SDS011;29263;48.172;11.484;2024-03-22T07:11:40;12.80;;;8.20;;
43664;SDS011;29263;48.172;11.484;2024-03-22T07:14:06;12.67;;;7.47;;
43664;SDS011;29263;48.172;11.484;2024-03-22T07:16:32;11.87;;;7.53;;
43664;SDS011;29263;48.172;11.484;2024-03-22T07:18:58;11.20;;;7.40;;
43664;SDS011;29263;48.172;11.484;2024-03-22T07:21:23;10.00;;;7.20;;
43664;SDS011;29263;48.172;11.484;2024-03-22T07:23:49;9.80;;;6.67;;
43664;SDS011;29263;48.172;11.484;2024-03-22T07:26:15;11.10;;;6.50;;
43664;SDS011;29263;48.172;11.484;2024-03-22T07:28:40;10.50;;;6.73;;
43664;SDS011;29263;48.172;11.484;2024-03-22T07:31:06;10.20;;;6.23;;
43664;SDS011;29263;48.172;11.484;2024-03-22T07:33:33;9.00;;;6.20;;
43664;SDS011;29263;48.172;11.484;2024-03-22T07:36:02;8.90;;;6.53;;
43664;SDS011;29263;48.172;11.484;2024-03-22T07:38:28;9.20;;;5.78;;
43664;SDS011;29263;48.172;11.484;2024-03-22T07:40:54;9.40;;;6.40;;
43664;SDS011;29263;48.172;11.484;2024-03-22T07:43:19;9.23;;;6.17;;
43664;SDS011;29263;48.172;11.484;2024-03-22T07:45:45;10.50;;;6.60;;
43664;SDS011;29263;48.172;11.484;2024-03-22T07:48:11;11.50;;;6.30;;
43664;SDS011;29263;48.172;11.484;2024-03-22T07:50:36;8.47;;;5.83;;
43664;SDS011;29263;48.172;11.484;2024-03-22T07:53:02;8.50;;;6.10;;
43664;SDS011;29263;48.172;11.484;2024-03-22T07:55:28;9.57;;;6.23;;
43664;SDS011;29263;48.172;11.484;2024-03-22T07:57:53;7.40;;;5.47;;
43664;SDS011;29263;48.172;11.484;2024-03-22T08:00:19;13.03;;;6.10;;
43664;SDS011;29263;48.172;11.484;2024-03-22T08:02:45;8.07;;;5.30;;
43664;SDS011;29263;48.172;11.484;2024-03-22T08:05:10;9.47;;;6.07;;
43664;SDS011;29263;48.172;11.484;2024-03-22T08:07:36;7.37;;;5.90;;
43664;SDS011;29263;48.172;11.484;2024-03-22T08:10:02;8.07;;;6.27;;
43664;SDS011;29263;48.172;11.484;2024-03-22T08:12:29;11.73;;;6.43;;
43664;SDS011;29263;48.172;11.484;2024-03-22T08:14:55;10.10;;;5.90;;
43664;SDS011;29263;48.172;11.484;2024-03-22T08:17:20;10.00;;;6.47;;
43664;SDS011;29263;48.172;11.484;2024-03-22T08:19:46;8.90;;;6.07;;
43664;SDS011;29263;48.172;11.484;2024-03-22T08:22:12;7.73;;;5.47;;
43664;SDS011;29263;48.172;11.484;2024-03-22T08:24:38;12.20;;;5.43;;
43664;SDS011;29263;48.172;11.484;2024-03-22T08:27:05;8.43;;;5.30;;
43664;SDS011;29263;48.172;11.484;2024-03-22T08:29:30;6.67;;;5.13;;
43664;SDS011;29263;48.172;11.484;2024-03-22T08:31:56;6.53;;;4.97;;
43664;SDS011;29263;48.172;11.484;2024-03-22T08:34:21;7.20;;;4.45;;
43664;SDS011;29263;48.172;11.484;2024-03-22T08:36:47;6.85;;;5.05;;
43664;SDS011;29263;48.172;11.484;2024-03-22T08:39:13;9.30;;;5.38;;
43664;SDS011;29263;48.172;11.484;2024-03-22T08:41:40;11.13;;;5.72;;
43664;SDS011;29263;48.172;11.484;2024-03-22T08:44:05;8.05;;;4.82;;
43664;SDS011;29263;48.172;11.484;2024-03-22T08:46:32;6.57;;;4.40;;
43664;SDS011;29263;48.172;11.484;2024-03-22T08:48:58;7.50;;;4.22;;
43664;SDS011;29263;48.172;11.484;2024-03-22T08:51:23;7.03;;;5.20;;
43664;SDS011;29263;48.172;11.484;2024-03-22T08:53:49;6.22;;;3.90;;
43664;SDS011;29263;48.172;11.484;2024-03-22T08:56:15;9.38;;;5.43;;
43664;SDS011;29263;48.172;11.484;2024-03-22T08:58:41;7.72;;;4.60;;
43664;SDS011;29263;48.172;11.484;2024-03-22T09:01:06;6.75;;;4.13;;
43664;SDS011;29263;48.172;11.484;2024-03-22T09:03:34;8.95;;;4.25;;
43664;SDS011;29263;48.172;11.484;2024-03-22T09:06:00;7.50;;;4.28;;
43664;SDS011;29263;48.172;11.484;2024-03-22T09:08:27;8.30;;;4.20;;
43664;SDS011;29263;48.172;11.484;2024-03-22T09:10:54;4.93;;;3.70;;
43664;SDS011;29263;48.172;11.484;2024-03-22T09:13:27;6.55;;;3.80;;
43664;SDS011;29263;48.172;11.484;2024-03-22T09:15:58;6.10;;;3.90;;
43664;SDS011;29263;48.172;11.484;2024-03-22T09:18:27;5.13;;;3.20;;
43664;SDS011;29263;48.172;11.484;2024-03-22T09:28:19;4.60;;;3.13;;
43664;SDS011;29263;48.172;11.484;2024-03-22T09:30:47;6.03;;;3.50;;
43664;SDS011;29263;48.172;11.484;2024-03-22T10:11:36;4.03;;;2.75;;
43664;SDS011;29263;48.172;11.484;2024-03-22T10:14:05;5.45;;;3.00;;
43664;SDS011;29263;48.172;11.484;2024-03-22T10:16:34;7.32;;;3.55;;
43664;SDS011;29263;48.172;11.484;2024-03-22T10:19:00;6.50;;;3.15;;
43664;SDS011;29263;48.172;11.484;2024-03-22T10:21:25;5.97;;;3.67;;
43664;SDS011;29263;48.172;11.484;2024-03-22T10:23:53;5.70;;;3.13;;
43664;SDS011;29263;48.172;11.484;2024-03-22T10:26:19;5.15;;;3.33;;
43664;SDS011;29263;48.172;11.484;2024-03-22T10:28:45;4.95;;;2.75;;
43664;SDS011;29263;48.172;11.484;2024-03-22T10:31:14;5.38;;;3.08;;
43664;SDS011;29263;48.172;11.484;2024-03-22T10:33:40;4.43;;;3.22;;
43664;SDS011;29263;48.172;11.484;2024-03-22T10:36:06;5.18;;;3.13;;
43664;SDS011;29263;48.172;11.484;2024-03-22T10:38:33;5.95;;;3.10;;
43664;SDS011;29263;48.172;11.484;2024-03-22T10:41:03;7.53;;;2.90;;
43664;SDS011;29263;48.172;11.484;2024-03-22T10:43:29;8.25;;;3.28;;
43664;SDS011;29263;48.172;11.484;2024-03-22T10:45:55;7.70;;;3.42;;
43664;SDS011;29263;48.172;11.484;2024-03-22T10:48:25;5.65;;;2.85;;
43664;SDS011;29263;48.172;11.484;2024-03-22T10:50:58;4.50;;;2.70;;
43664;SDS011;29263;48.172;11.484;2024-03-22T10:53:26;4.78;;;3.15;;
43664;SDS011;29263;48.172;11.484;2024-03-22T10:55:52;5.72;;;3.45;;
43664;SDS011;29263;48.172;11.484;2024-03-22T10:58:21;4.68;;;3.50;;
43664;SDS011;29263;48.172;11.484;2024-03-22T11:00:47;9.18;;;3.08;;
43664;SDS011;29263;48.172;11.484;2024-03-22T11:03:19;6.10;;;3.00;;
43664;SDS011;29263;48.172;11.484;2024-03-22T11:05:46;5.55;;;3.25;;
43664;SDS011;29263;48.172;11.484;2024-03-22T11:08:12;6.00;;;3.38;;
43664;SDS011;29263;48.172;11.484;2024-03-22T11:10:38;5.43;;;3.10;;
43664;SDS011;29263;48.172;11.484;2024-03-22T11:13:04;3.92;;;2.50;;
43664;SDS011;29263;48.172;11.484;2024-03-22T11:15:32;4.13;;;2.90;;
43664;SDS011;29263;48.172;11.484;2024-03-22T11:17:58;6.25;;;2.97;;
43664;SDS011;29263;48.172;11.484;2024-03-22T11:20:27;4.35;;;2.60;;
43664;SDS011;29263;48.172;11.484;2024-03-22T11:22:54;6.57;;;3.40;;
43664;SDS011;29263;48.172;11.484;2024-03-22T11:25:21;4.28;;;3.10;;
43664;SDS011;29263;48.172;11.484;2024-03-22T11:27:46;3.88;;;2.63;;
43664;SDS011;29263;48.172;11.484;2024-03-22T11:30:12;5.55;;;3.33;;
43664;SDS011;29263;48.172;11.484;2024-03-22T11:32:38;6.03;;;3.03;;
43664;SDS011;29263;48.172;11.484;2024-03-22T11:35:09;4.95;;;3.10;;
43664;SDS011;29263;48.172;11.484;2024-03-22T11:37:35;6.03;;;2.92;;
43664;SDS011;29263;48.172;11.484;2024-03-22T11:40:01;3.53;;;2.88;;
43664;SDS011;29263;48.172;11.484;2024-03-22T11:42:32;8.40;;;3.30;;
43664;SDS011;29263;48.172;11.484;2024-03-22T11:44:58;5.20;;;3.05;;
43664;SDS011;29263;48.172;11.484;2024-03-22T11:47:25;6.55;;;3.10;;
43664;SDS011;29263;48.172;11.484;2024-03-22T11:49:50;4.03;;;2.92;;
43664;SDS011;29263;48.172;11.484;2024-03-22T11:52:16;5.25;;;3.50;;
43664;SDS011;29263;48.172;11.484;2024-03-22T11:54:42;6.90;;;3.22;;
43664;SDS011;29263;48.172;11.484;2024-03-22T11:57:08;6.40;;;3.17;;
43664;SDS011;29263;48.172;11.484;2024-03-22T11:59:34;5.70;;;3.30;;
43664;SDS011;29263;48.172;11.484;2024-03-22T12:02:00;5.90;;;2.90;;
43664;SDS011;29263;48.172;11.484;2024-03-22T12:04:26;5.35;;;3.33;;
43664;SDS011;29263;48.172;11.484;2024-03-22T12:06:51;6.68;;;2.88;;
43664;SDS011;29263;48.172;11.484;2024-03-22T12:09:18;5.93;;;3.15;;
43664;SDS011;29263;48.172;11.484;2024-03-22T12:11:44;4.63;;;2.88;;
43664;SDS011;29263;48.172;11.484;2024-03-22T12:14:09;3.67;;;2.70;;
43664;SDS011;29263;48.172;11.484;2024-03-22T12:16:35;5.38;;;2.40;;
43664;SDS011;29263;48.172;11.484;2024-03-22T12:19:01;5.70;;;2.95;;
43664;SDS011;29263;48.172;11.484;2024-03-22T12:21:28;5.15;;;2.90;;
43664;SDS011;29263;48.172;11.484;2024-03-22T12:23:53;7.30;;;2.78;;
43664;SDS011;29263;48.172;11.484;2024-03-22T12:26:19;5.43;;;3.00;;
43664;SDS011;29263;48.172;11.484;2024-03-22T12:28:45;4.40;;;2.38;;
43664;SDS011;29263;48.172;11.484;2024-03-22T12:31:10;4.55;;;2.17;;
43664;SDS011;29263;48.172;11.484;2024-03-22T12:33:36;5.03;;;2.22;;
43664;SDS011;29263;48.172;11.484;2024-03-22T12:36:02;2.97;;;2.38;;
43664;SDS011;29263;48.172;11.484;2024-03-22T12:38:29;3.78;;;2.50;;
43664;SDS011;29263;48.172;11.484;2024-03-22T12:40:54;4.50;;;2.45;;
43664;SDS011;29263;48.172;11.484;2024-03-22T12:43:20;6.18;;;2.65;;
43664;SDS011;29263;48.172;11.484;2024-03-22T12:45:46;4.28;;;2.75;;
43664;SDS011;29263;48.172;11.484;2024-03-22T12:48:12;5.03;;;2.70;;
43664;SDS011;29263;48.172;11.484;2024-03-22T12:50:37;4.72;;;2.60;;
43664;SDS011;29263;48.172;11.484;2024-03-22T12:53:04;3.92;;;2.03;;
43664;SDS011;29263;48.172;11.484;2024-03-22T12:55:29;3.33;;;2.60;;
43664;SDS011;29263;48.172;11.484;2024-03-22T12:57:56;3.80;;;2.50;;
43664;SDS011;29263;48.172;11.484;2024-03-22T13:00:22;6.75;;;2.22;;
43664;SDS011;29263;48.172;11.484;2024-03-22T13:02:48;3.33;;;2.00;;
43664;SDS011;29263;48.172;11.484;2024-03-22T13:05:13;4.68;;;2.42;;
43664;SDS011;29263;48.172;11.484;2024-03-22T13:07:40;3.50;;;2.50;;
43664;SDS011;29263;48.172;11.484;2024-03-22T13:10:07;5.60;;;2.70;;
43664;SDS011;29263;48.172;11.484;2024-03-22T13:12:33;2.67;;;2.20;;
43664;SDS011;29263;48.172;11.484;2024-03-22T13:14:59;7.03;;;2.90;;
43664;SDS011;29263;48.172;11.484;2024-03-22T13:17:25;5.35;;;2.40;;
43664;SDS011;29263;48.172;11.484;2024-03-22T13:19:51;3.28;;;2.45;;
43664;SDS011;29263;48.172;11.484;2024-03-22T13:22:17;3.13;;;2.30;;
43664;SDS011;29263;48.172;11.484;2024-03-22T13:24:46;3.13;;;2.10;;
43664;SDS011;29263;48.172;11.484;2024-03-22T13:27:12;2.75;;;1.70;;
43664;SDS011;29263;48.172;11.484;2024-03-22T13:29:39;3.03;;;1.65;;
43664;SDS011;29263;48.172;11.484;2024-03-22T13:32:05;3.75;;;2.20;;
43664;SDS011;29263;48.172;11.484;2024-03-22T13:34:33;4.07;;;2.17;;
43664;SDS011;29263;48.172;11.484;2024-03-22T13:37:02;5.80;;;2.53;;
43664;SDS011;29263;48.172;11.484;2024-03-22T13:39:28;5.10;;;2.30;;
43664;SDS011;29263;48.172;11.484;2024-03-22T13:41:56;3.40;;;2.10;;
43664;SDS011;29263;48.172;11.484;2024-03-22T13:44:22;2.60;;;1.75;;
43664;SDS011;29263;48.172;11.484;2024-03-22T13:46:49;3.67;;;2.53;;
43664;SDS011;29263;48.172;11.484;2024-03-22T13:49:16;2.63;;;2.20;;
43664;SDS011;29263;48.172;11.484;2024-03-22T13:51:49;3.35;;;1.80;;
43664;SDS011;29263;48.172;11.484;2024-03-22T13:54:15;3.10;;;1.83;;
43664;SDS011;29263;48.172;11.484;2024-03-22T13:56:40;4.78;;;1.73;;
43664;SDS011;29263;48.172;11.484;2024-03-22T13:59:06;2.75;;;1.30;;
43664;SDS011;29263;48.172;11.484;2024-03-22T14:01:35;1.52;;;1.25;;
43664;SDS011;29263;48.172;11.484;2024-03-22T14:04:02;2.35;;;1.70;;
43664;SDS011;29263;48.172;11.484;2024-03-22T14:06:31;2.35;;;1.77;;
43664;SDS011;29263;48.172;11.484;2024-03-22T14:08:57;4.95;;;2.35;;
43664;SDS011;29263;48.172;11.484;2024-03-22T14:11:27;3.03;;;1.90;;
43664;SDS011;29263;48.172;11.484;2024-03-22T14:13:53;5.43;;;2.15;;
43664;SDS011;29263;48.172;11.484;2024-03-22T14:16:18;2.10;;;1.42;;
43664;SDS011;29263;48.172;11.484;2024-03-22T14:18:44;1.75;;;1.25;;
43664;SDS011;29263;48.172;11.484;2024-03-22T14:21:10;1.80;;;1.20;;
43664;SDS011;29263;48.172;11.484;2024-03-22T14:23:39;6.13;;;1.95;;
43664;SDS011;29263;48.172;11.484;2024-03-22T14:26:05;1.92;;;1.40;;
43664;SDS011;29263;48.172;11.484;2024-03-22T14:28:30;1.73;;;1.33;;
43664;SDS011;29263;48.172;11.484;2024-03-22T14:30:56;2.47;;;1.42;;
43664;SDS011;29263;48.172;11.484;2024-03-22T14:33:21;2.45;;;1.00;;
43664;SDS011;29263;48.172;11.484;2024-03-22T14:35:47;4.90;;;1.83;;
43664;SDS011;29263;48.172;11.484;2024-03-22T14:38:13;2.45;;;1.73;;
43664;SDS011;29263;48.172;11.484;2024-03-22T14:40:39;2.78;;;1.17;;
43664;SDS011;29263;48.172;11.484;2024-03-22T14:43:05;4.45;;;1.27;;
43664;SDS011;29263;48.172;11.484;2024-03-22T14:45:31;2.47;;;1.27;;
43664;SDS011;29263;48.172;11.484;2024-03-22T14:47:57;2.42;;;1.20;;
43664;SDS011;29263;48.172;11.484;2024-03-22T14:50:22;1.15;;;0.90;;
43664;SDS011;29263;48.172;11.484;2024-03-22T14:52:49;1.45;;;1.00;;
43664;SDS011;29263;48.172;11.484;2024-03-22T14:55:15;2.92;;;1.27;;
43664;SDS011;29263;48.172;11.484;2024-03-22T14:57:41;4.57;;;1.02;;
43664;SDS011;29263;48.172;11.484;2024-03-22T15:00:06;3.83;;;1.60;;
43664;SDS011;29263;48.172;11.484;2024-03-22T15:05:02;3.42;;;1.30;;
43664;SDS011;29263;48.172;11.484;2024-03-22T15:07:29;5.07;;;1.48;;